createdAt,value
2018-09-28T00:00:00.070Z,10.1
2018-09-28T00:01:01.463Z,10.1
2018-09-28T00:02:04.075Z,10.1
2018-09-28T00:03:05.473Z,10.1
2018-09-28T00:04:06.888Z,10.1
2018-09-28T00:05:08.392Z,10.0
2018-09-28T00:06:09.801Z,10.1
2018-09-28T00:07:11.273Z,10.0
2018-09-28T00:08:12.673Z,10.0
2018-09-28T00:09:14.157Z,10.0
2018-09-28T00:10:15.559Z,10.0
2018-09-28T00:11:17.046Z,10.1
2018-09-28T00:12:18.435Z,10.0
2018-09-28T00:13:19.917Z,10.0
2018-09-28T00:14:21.327Z,10.0
2018-09-28T00:15:22.802Z,10.0
2018-09-28T00:16:24.205Z,10.0
2018-09-28T00:17:25.678Z,9.9
2018-09-28T00:18:27.079Z,9.9
2018-09-28T00:19:28.562Z,10.0
2018-09-28T00:20:29.961Z,9.9
2018-09-28T00:21:31.385Z,9.9
2018-09-28T00:22:32.879Z,9.8
2018-09-28T00:23:34.288Z,9.8
2018-09-28T00:24:35.679Z,9.9
2018-09-28T00:25:37.204Z,9.9
2018-09-28T00:26:38.609Z,9.8
2018-09-28T00:27:40.010Z,9.8
2018-09-28T00:28:41.549Z,9.8
2018-09-28T00:29:42.948Z,9.8
2018-09-28T00:30:44.356Z,9.8
2018-09-28T00:31:45.845Z,9.8
2018-09-28T00:32:47.250Z,9.7
2018-09-28T00:33:48.647Z,9.8
2018-09-28T00:34:50.166Z,9.7
2018-09-28T00:35:51.639Z,9.8
2018-09-28T00:36:52.960Z,9.7
2018-09-28T00:37:54.503Z,9.7
2018-09-28T00:38:55.904Z,9.7
2018-09-28T00:39:57.305Z,9.7
2018-09-28T00:40:58.804Z,9.7
2018-09-28T00:42:00.209Z,9.7
2018-09-28T00:43:01.706Z,9.7
2018-09-28T00:44:03.105Z,9.6
2018-09-28T00:45:04.538Z,9.6
2018-09-28T00:46:06.018Z,9.6
2018-09-28T00:47:07.409Z,9.6
2018-09-28T00:48:08.884Z,9.7
2018-09-28T00:49:10.330Z,9.6
2018-09-28T00:50:11.733Z,9.6
2018-09-28T00:51:13.132Z,9.5
2018-09-28T00:52:14.656Z,9.5
2018-09-28T00:53:16.058Z,9.5
2018-09-28T00:54:17.456Z,9.5
2018-09-28T00:55:18.986Z,9.5
2018-09-28T00:56:20.389Z,9.5
2018-09-28T00:57:21.791Z,9.5
2018-09-28T00:58:23.293Z,9.4
2018-09-28T00:59:24.699Z,9.5
2018-09-28T01:00:26.094Z,9.3
2018-09-28T01:01:27.617Z,9.4
2018-09-28T01:02:29.017Z,9.5
2018-09-28T01:03:30.512Z,9.4
2018-09-28T01:04:31.919Z,9.3
2018-09-28T01:05:33.320Z,9.4
2018-09-28T01:06:34.818Z,9.3
2018-09-28T01:07:36.219Z,9.4
2018-09-28T01:08:37.625Z,9.3
2018-09-28T01:09:39.142Z,9.3
2018-09-28T01:10:40.546Z,9.3
2018-09-28T01:11:41.952Z,9.2
2018-09-28T01:12:43.463Z,9.2
2018-09-28T01:13:44.862Z,9.3
2018-09-28T01:14:46.354Z,9.2
2018-09-28T01:15:47.754Z,9.3
2018-09-28T01:16:49.227Z,9.3
2018-09-28T01:17:50.643Z,9.3
2018-09-28T01:18:52.107Z,9.2
2018-09-28T01:19:53.518Z,9.2
2018-09-28T01:20:54.988Z,9.3
2018-09-28T01:21:56.387Z,9.3
2018-09-28T01:22:57.902Z,9.2
2018-09-28T01:23:59.316Z,9.3
2018-09-28T01:25:00.756Z,9.1
2018-09-28T01:26:02.176Z,9.1
2018-09-28T01:27:03.629Z,9.1
2018-09-28T01:28:05.028Z,9.2
2018-09-28T01:29:06.510Z,9.1
2018-09-28T01:30:07.917Z,9.1
2018-09-28T01:31:09.326Z,9.1
2018-09-28T01:32:10.831Z,9.1
2018-09-28T01:33:12.234Z,9.2
2018-09-28T01:34:13.633Z,9.1
2018-09-28T01:35:15.181Z,9.1
2018-09-28T01:36:16.580Z,9.0
2018-09-28T01:37:17.995Z,9.1
2018-09-28T01:38:19.494Z,9.0
2018-09-28T01:39:20.899Z,9.1
2018-09-28T01:40:22.359Z,9.1
2018-09-28T01:41:23.755Z,9.1
2018-09-28T01:42:25.198Z,9.1
2018-09-28T01:43:26.677Z,9.0
2018-09-28T01:44:28.121Z,9.0
2018-09-28T01:45:29.524Z,9.0
2018-09-28T01:46:31.011Z,9.0
2018-09-28T01:47:32.418Z,8.9
2018-09-28T01:48:33.881Z,9.1
2018-09-28T01:49:35.277Z,9.0
2018-09-28T01:50:36.758Z,9.0
2018-09-28T01:51:38.195Z,8.9
2018-09-28T01:52:39.645Z,9.0
2018-09-28T01:53:41.048Z,9.0
2018-09-28T01:54:42.521Z,9.0
2018-09-28T01:55:43.923Z,8.9
2018-09-28T01:56:45.406Z,8.9
2018-09-28T01:57:46.815Z,8.9
2018-09-28T01:58:48.287Z,8.9
2018-09-28T01:59:49.679Z,8.9
2018-09-28T02:00:51.163Z,8.9
2018-09-28T02:01:52.568Z,8.9
2018-09-28T02:02:54.056Z,8.8
2018-09-28T02:03:55.451Z,8.8
2018-09-28T02:04:56.928Z,8.9
2018-09-28T02:05:58.324Z,8.9
2018-09-28T02:06:59.735Z,8.9
2018-09-28T02:08:01.245Z,8.9
2018-09-28T02:09:02.652Z,8.8
2018-09-28T02:10:04.058Z,8.8
2018-09-28T02:11:05.568Z,8.9
2018-09-28T02:12:06.969Z,8.8
2018-09-28T02:13:08.460Z,8.8
2018-09-28T02:14:09.856Z,8.8
2018-09-28T02:15:11.340Z,8.8
2018-09-28T02:16:12.747Z,8.8
2018-09-28T02:17:14.147Z,8.8
2018-09-28T02:18:15.545Z,8.8
2018-09-28T02:19:16.946Z,8.8
2018-09-28T02:20:18.532Z,8.8
2018-09-28T02:21:19.935Z,8.8
2018-09-28T02:22:21.338Z,8.7
2018-09-28T02:23:22.859Z,8.8
2018-09-28T02:24:24.252Z,8.7
2018-09-28T02:25:25.649Z,8.7
2018-09-28T02:26:27.178Z,8.7
2018-09-28T02:27:28.579Z,8.7
2018-09-28T02:28:29.977Z,8.7
2018-09-28T02:29:31.498Z,8.7
2018-09-28T02:30:32.975Z,8.7
2018-09-28T02:31:34.298Z,8.7
2018-09-28T02:32:35.820Z,8.6
2018-09-28T02:33:37.219Z,8.7
2018-09-28T02:34:38.613Z,8.7
2018-09-28T02:35:40.142Z,8.7
2018-09-28T02:36:41.551Z,8.7
2018-09-28T02:37:42.948Z,8.7
2018-09-28T02:38:44.471Z,8.7
2018-09-28T02:39:45.863Z,8.7
2018-09-28T02:40:47.345Z,8.7
2018-09-28T02:41:48.744Z,8.7
2018-09-28T02:42:50.228Z,8.7
2018-09-28T02:43:51.620Z,8.7
2018-09-28T02:44:53.107Z,8.7
2018-09-28T02:45:54.508Z,8.7
2018-09-28T02:46:55.909Z,8.6
2018-09-28T02:47:57.430Z,8.7
2018-09-28T02:48:58.856Z,8.6
2018-09-28T02:50:00.257Z,8.7
2018-09-28T02:51:01.784Z,8.6
2018-09-28T02:52:03.185Z,8.7
2018-09-28T02:53:04.977Z,8.6
2018-09-28T02:54:06.482Z,8.7
2018-09-28T02:55:07.883Z,8.7
2018-09-28T02:56:09.309Z,8.7
2018-09-28T02:57:10.812Z,8.7
2018-09-28T02:58:12.237Z,8.7
2018-09-28T02:59:13.633Z,8.9
2018-09-28T03:00:15.129Z,8.9
2018-09-28T03:01:16.521Z,8.9
2018-09-28T03:02:17.917Z,9.0
2018-09-28T03:03:19.485Z,9.1
2018-09-28T03:04:20.894Z,9.0
2018-09-28T03:05:22.311Z,9.1
2018-09-28T03:06:23.899Z,9.1
2018-09-28T03:07:25.167Z,9.2
2018-09-28T03:08:26.569Z,9.2
2018-09-28T03:09:28.088Z,9.3
2018-09-28T03:10:29.522Z,9.2
2018-09-28T03:11:30.967Z,9.3
2018-09-28T03:12:32.394Z,9.4
2018-09-28T03:13:33.851Z,9.5
2018-09-28T03:14:35.244Z,9.5
2018-09-28T03:15:36.734Z,9.4
2018-09-28T03:16:38.139Z,9.4
2018-09-28T03:17:39.649Z,9.5
2018-09-28T03:18:41.057Z,9.6
2018-09-28T03:19:42.514Z,9.6
2018-09-28T03:20:43.928Z,9.6
2018-09-28T03:21:45.376Z,9.7
2018-09-28T03:22:46.774Z,9.7
2018-09-28T03:23:48.301Z,9.7
2018-09-28T03:24:49.732Z,9.7
2018-09-28T03:25:51.349Z,9.7
2018-09-28T03:26:52.742Z,9.8
2018-09-28T03:27:54.148Z,9.8
2018-09-28T03:28:55.664Z,9.8
2018-09-28T03:29:57.069Z,9.8
2018-09-28T03:30:58.498Z,9.8
2018-09-28T03:32:00.093Z,9.9
2018-09-28T03:33:01.499Z,9.8
2018-09-28T03:34:02.897Z,9.8
2018-09-28T03:35:04.575Z,9.9
2018-09-28T03:36:05.977Z,9.9
2018-09-28T03:37:07.381Z,9.8
2018-09-28T03:38:09.108Z,9.8
2018-09-28T03:39:10.539Z,9.7
2018-09-28T03:40:11.931Z,9.8
2018-09-28T03:41:13.426Z,9.9
2018-09-28T03:42:14.829Z,9.9
2018-09-28T03:43:16.237Z,9.8
2018-09-28T03:44:17.747Z,9.9
2018-09-28T03:45:19.152Z,10.0
2018-09-28T03:46:20.871Z,9.9
2018-09-28T03:47:22.273Z,10.0
2018-09-28T03:48:23.851Z,10.0
2018-09-28T03:49:25.253Z,10.0
2018-09-28T03:50:26.801Z,10.1
2018-09-28T03:51:28.227Z,10.1
2018-09-28T03:52:29.615Z,10.1
2018-09-28T03:53:31.119Z,10.0
2018-09-28T03:54:32.532Z,10.1
2018-09-28T03:55:33.941Z,10.2
2018-09-28T03:56:35.456Z,10.2
2018-09-28T03:57:36.890Z,10.1
2018-09-28T03:58:38.262Z,10.3
2018-09-28T03:59:39.696Z,10.3
2018-09-28T04:00:41.110Z,10.3
2018-09-28T04:01:42.511Z,10.3
2018-09-28T04:02:44.113Z,10.3
2018-09-28T04:03:45.503Z,10.3
2018-09-28T04:04:47.172Z,10.3
2018-09-28T04:05:48.591Z,10.3
2018-09-28T04:06:50.275Z,10.4
2018-09-28T04:07:51.729Z,10.4
2018-09-28T04:08:53.342Z,10.5
2018-09-28T04:09:54.747Z,10.4
2018-09-28T04:10:56.440Z,10.4
2018-09-28T04:11:57.841Z,10.4
2018-09-28T04:12:59.522Z,10.5
2018-09-28T04:14:00.933Z,10.5
2018-09-28T04:15:02.733Z,10.5
2018-09-28T04:16:04.034Z,10.5
2018-09-28T04:17:05.714Z,10.6
2018-09-28T04:18:07.125Z,10.6
2018-09-28T04:19:08.523Z,10.6
2018-09-28T04:20:10.009Z,10.6
2018-09-28T04:21:11.412Z,10.7
2018-09-28T04:22:12.830Z,10.6
2018-09-28T04:23:14.329Z,10.7
2018-09-28T04:24:15.728Z,10.7
2018-09-28T04:25:17.416Z,10.7
2018-09-28T04:26:18.816Z,10.6
2018-09-28T04:27:20.496Z,10.7
2018-09-28T04:28:21.894Z,10.8
2018-09-28T04:29:23.583Z,10.8
2018-09-28T04:30:24.983Z,10.8
2018-09-28T04:31:26.667Z,10.7
2018-09-28T04:32:28.084Z,10.8
2018-09-28T04:33:29.690Z,10.9
2018-09-28T04:34:31.094Z,10.8
2018-09-28T04:35:32.642Z,10.8
2018-09-28T04:36:34.036Z,10.8
2018-09-28T04:37:35.731Z,10.8
2018-09-28T04:38:37.128Z,10.9
2018-09-28T04:39:38.533Z,10.9
2018-09-28T04:40:40.048Z,11.0
2018-09-28T04:41:41.452Z,10.9
2018-09-28T04:42:42.853Z,10.9
2018-09-28T04:43:44.363Z,10.9
2018-09-28T04:44:45.766Z,11.1
2018-09-28T04:45:47.244Z,11.1
2018-09-28T04:46:48.654Z,11.0
2018-09-28T04:47:50.331Z,11.1
2018-09-28T04:48:51.738Z,10.9
2018-09-28T04:49:53.144Z,11.0
2018-09-28T04:50:54.654Z,11.0
2018-09-28T04:51:56.054Z,11.1
2018-09-28T04:52:57.462Z,11.0
2018-09-28T04:53:58.975Z,11.0
2018-09-28T04:55:00.378Z,11.0
2018-09-28T04:56:01.995Z,11.0
2018-09-28T04:57:03.413Z,11.1
2018-09-28T04:58:04.938Z,11.1
2018-09-28T04:59:06.340Z,11.1
2018-09-28T05:00:07.819Z,11.1
2018-09-28T05:01:09.227Z,11.2
2018-09-28T05:02:10.906Z,11.2
2018-09-28T05:03:12.306Z,11.2
2018-09-28T05:04:13.788Z,11.1
2018-09-28T05:05:15.188Z,11.2
2018-09-28T05:06:16.603Z,11.2
2018-09-28T05:07:18.009Z,11.2
2018-09-28T05:08:19.487Z,11.2
2018-09-28T05:09:20.909Z,11.3
2018-09-28T05:10:22.366Z,11.2
2018-09-28T05:11:23.772Z,11.3
2018-09-28T05:12:25.248Z,11.3
2018-09-28T05:13:26.653Z,11.3
2018-09-28T05:14:28.129Z,11.3
2018-09-28T05:15:29.555Z,11.4
2018-09-28T05:16:31.020Z,11.3
2018-09-28T05:17:32.429Z,11.4
2018-09-28T05:18:33.895Z,11.3
2018-09-28T05:19:35.383Z,11.3
2018-09-28T05:20:36.699Z,11.3
2018-09-28T05:21:38.233Z,11.4
2018-09-28T05:22:39.644Z,11.3
2018-09-28T05:23:41.040Z,11.3
2018-09-28T05:24:42.538Z,11.5
2018-09-28T05:25:43.929Z,11.5
2018-09-28T05:26:45.426Z,11.4
2018-09-28T05:27:46.849Z,11.4
2018-09-28T05:28:48.300Z,11.4
2018-09-28T05:29:49.707Z,11.4
2018-09-28T05:30:53.968Z,11.4
2018-09-28T05:31:52.651Z,11.5
2018-09-28T05:32:54.137Z,11.4
2018-09-28T05:33:55.469Z,11.5
2018-09-28T05:34:56.875Z,11.5
2018-09-28T05:35:58.385Z,11.5
2018-09-28T05:36:59.795Z,11.6
2018-09-28T05:38:01.238Z,11.6
2018-09-28T05:39:02.716Z,11.5
2018-09-28T05:40:04.119Z,11.6
2018-09-28T05:41:05.590Z,11.5
2018-09-28T05:42:07.003Z,11.6
2018-09-28T05:43:08.471Z,11.6
2018-09-28T05:44:10.667Z,11.6
2018-09-28T05:45:12.168Z,11.6
2018-09-28T05:46:13.633Z,11.6
2018-09-28T05:47:15.049Z,11.6
2018-09-28T05:48:16.451Z,11.6
2018-09-28T05:49:17.854Z,11.6
2018-09-28T05:50:19.371Z,11.7
2018-09-28T05:51:20.819Z,11.7
2018-09-28T05:52:22.190Z,11.6
2018-09-28T05:53:23.688Z,11.7
2018-09-28T05:54:25.091Z,11.7
2018-09-28T05:55:26.498Z,11.7
2018-09-28T05:56:28.012Z,11.7
2018-09-28T05:57:29.415Z,11.8
2018-09-28T05:58:30.927Z,11.8
2018-09-28T05:59:32.293Z,11.8
2018-09-28T06:00:33.700Z,11.8
2018-09-28T06:01:35.213Z,11.8
2018-09-28T06:02:37.591Z,11.8
2018-09-28T06:03:38.999Z,11.8
2018-09-28T06:04:40.586Z,11.9
2018-09-28T06:05:41.991Z,11.9
2018-09-28T06:06:43.396Z,11.9
2018-09-28T06:07:44.881Z,11.9
2018-09-28T06:08:46.293Z,11.8
2018-09-28T06:09:47.955Z,11.9
2018-09-28T06:10:49.411Z,11.9
2018-09-28T06:11:50.826Z,12.0
2018-09-28T06:12:52.290Z,12.0
2018-09-28T06:13:53.692Z,12.0
2018-09-28T06:14:55.172Z,11.9
2018-09-28T06:15:56.566Z,12.0
2018-09-28T06:16:58.049Z,11.9
2018-09-28T06:17:59.502Z,12.0
2018-09-28T06:19:00.989Z,12.0
2018-09-28T06:20:02.348Z,12.0
2018-09-28T06:21:03.809Z,12.1
2018-09-28T06:22:05.208Z,12.0
2018-09-28T06:23:06.701Z,12.1
2018-09-28T06:24:08.127Z,12.1
2018-09-28T06:25:09.521Z,12.1
2018-09-28T06:26:11.014Z,12.2
2018-09-28T06:27:12.423Z,12.1
2018-09-28T06:28:13.875Z,12.1
2018-09-28T06:29:15.335Z,12.1
2018-09-28T06:30:16.821Z,12.2
2018-09-28T06:31:18.216Z,12.2
2018-09-28T06:32:19.628Z,12.2
2018-09-28T06:33:21.111Z,12.3
2018-09-28T06:34:22.519Z,12.3
2018-09-28T06:35:23.985Z,12.2
2018-09-28T06:36:25.401Z,12.3
2018-09-28T06:37:26.860Z,12.4
2018-09-28T06:38:28.263Z,12.4
2018-09-28T06:39:29.739Z,12.3
2018-09-28T06:40:31.147Z,12.3
2018-09-28T06:41:32.620Z,12.3
2018-09-28T06:42:34.024Z,12.4
2018-09-28T06:43:35.501Z,12.4
2018-09-28T06:44:36.922Z,12.5
2018-09-28T06:45:38.311Z,12.5
2018-09-28T06:46:39.829Z,12.5
2018-09-28T06:47:41.277Z,12.6
2018-09-28T06:48:42.643Z,12.5
2018-09-28T06:49:44.145Z,12.6
2018-09-28T06:50:45.551Z,12.7
2018-09-28T06:51:47.026Z,12.7
2018-09-28T06:52:48.429Z,12.7
2018-09-28T06:53:49.921Z,12.7
2018-09-28T06:54:51.317Z,12.8
2018-09-28T06:55:52.737Z,12.7
2018-09-28T06:56:54.231Z,12.8
2018-09-28T06:57:55.639Z,12.8
2018-09-28T06:58:57.043Z,12.9
2018-09-28T06:59:58.646Z,12.8
2018-09-28T07:00:59.980Z,12.9
2018-09-28T07:02:01.456Z,12.8
2018-09-28T07:03:02.854Z,12.8
2018-09-28T07:04:04.415Z,12.8
2018-09-28T07:05:05.771Z,12.8
2018-09-28T07:06:07.213Z,12.8
2018-09-28T07:07:08.688Z,12.8
2018-09-28T07:08:10.098Z,12.8
2018-09-28T07:09:11.505Z,12.8
2018-09-28T07:10:13.022Z,12.8
2018-09-28T07:11:14.411Z,12.8
2018-09-28T07:12:15.976Z,12.8
2018-09-28T07:13:17.308Z,12.8
2018-09-28T07:14:18.987Z,12.8
2018-09-28T07:15:20.398Z,12.8
2018-09-28T07:16:22.070Z,12.8
2018-09-28T07:17:23.469Z,12.8
2018-09-28T07:18:25.036Z,12.9
2018-09-28T07:19:26.365Z,12.9
2018-09-28T07:20:28.032Z,12.9
2018-09-28T07:21:29.447Z,13.0
2018-09-28T07:22:30.857Z,13.0
2018-09-28T07:23:32.352Z,13.0
2018-09-28T07:24:33.821Z,13.0
2018-09-28T07:25:35.168Z,13.1
2018-09-28T07:26:36.674Z,13.1
2018-09-28T07:27:38.079Z,13.0
2018-09-28T07:28:39.499Z,13.1
2018-09-28T07:29:40.955Z,13.1
2018-09-28T07:30:42.378Z,13.1
2018-09-28T07:31:43.786Z,13.1
2018-09-28T07:32:45.260Z,13.1
2018-09-28T07:33:46.666Z,13.2
2018-09-28T07:34:48.145Z,13.2
2018-09-28T07:35:49.564Z,13.2
2018-09-28T07:36:50.990Z,13.2
2018-09-28T07:37:52.356Z,13.3
2018-09-28T07:38:53.768Z,13.3
2018-09-28T07:39:55.347Z,13.4
2018-09-28T07:40:56.750Z,13.4
2018-09-28T07:41:58.269Z,13.4
2018-09-28T07:42:59.629Z,13.5
2018-09-28T07:44:01.109Z,13.4
2018-09-28T07:45:02.511Z,13.5
2018-09-28T07:46:03.990Z,13.6
2018-09-28T07:47:05.392Z,13.6
2018-09-28T07:48:06.870Z,13.5
2018-09-28T07:49:08.326Z,13.6
2018-09-28T07:50:09.750Z,13.5
2018-09-28T07:51:11.158Z,13.7
2018-09-28T07:52:12.567Z,13.6
2018-09-28T07:53:14.069Z,13.7
2018-09-28T07:54:15.478Z,13.7
2018-09-28T07:55:16.885Z,13.8
2018-09-28T07:56:18.409Z,13.7
2018-09-28T07:57:19.802Z,13.9
2018-09-28T07:58:21.274Z,13.9
2018-09-28T07:59:22.682Z,14.0
2018-09-28T08:00:24.163Z,14.1
2018-09-28T08:01:25.560Z,14.0
2018-09-28T08:02:27.039Z,14.1
2018-09-28T08:03:28.445Z,14.1
2018-09-28T08:04:29.920Z,14.1
2018-09-28T08:05:31.323Z,14.1
2018-09-28T08:06:32.799Z,14.2
2018-09-28T08:07:34.206Z,14.3
2018-09-28T08:08:35.681Z,14.3
2018-09-28T08:09:37.118Z,14.4
2018-09-28T08:10:38.563Z,14.4
2018-09-28T08:11:39.969Z,14.4
2018-09-28T08:12:41.446Z,14.5
2018-09-28T08:13:42.848Z,14.5
2018-09-28T08:14:44.323Z,14.6
2018-09-28T08:15:45.730Z,14.5
2018-09-28T08:16:47.203Z,14.6
2018-09-28T08:17:48.654Z,14.6
2018-09-28T08:18:50.092Z,14.6
2018-09-28T08:19:51.501Z,14.7
2018-09-28T08:20:52.970Z,14.7
2018-09-28T08:21:54.378Z,14.6
2018-09-28T08:22:55.847Z,14.7
2018-09-28T08:23:57.254Z,14.6
2018-09-28T08:24:59.109Z,14.7
2018-09-28T08:26:00.516Z,14.7
2018-09-28T08:27:02.020Z,14.7
2018-09-28T08:28:03.429Z,14.7
2018-09-28T08:29:05.276Z,14.6
2018-09-28T08:30:06.679Z,14.6
2018-09-28T08:31:08.572Z,14.7
2018-09-28T08:32:10.354Z,14.8
2018-09-28T08:33:11.888Z,14.8
2018-09-28T08:34:13.295Z,14.8
2018-09-28T08:35:14.779Z,14.8
2018-09-28T08:36:16.259Z,14.7
2018-09-28T08:37:17.589Z,14.8
2018-09-28T08:38:19.983Z,14.7
2018-09-28T08:39:21.367Z,14.8
2018-09-28T08:40:22.770Z,14.7
2018-09-28T08:41:24.622Z,14.7
2018-09-28T08:42:26.030Z,14.7
2018-09-28T08:43:27.548Z,14.7
2018-09-28T08:44:28.926Z,14.7
2018-09-28T08:45:30.405Z,14.7
2018-09-28T08:46:32.189Z,14.5
2018-09-28T08:47:33.594Z,14.5
2018-09-28T08:48:35.137Z,14.5
2018-09-28T08:49:36.540Z,14.6
2018-09-28T08:50:37.951Z,14.6
2018-09-28T08:51:39.457Z,14.7
2018-09-28T08:52:40.862Z,14.7
2018-09-28T08:53:42.338Z,14.7
2018-09-28T08:54:43.749Z,14.8
2018-09-28T08:55:45.218Z,14.8
2018-09-28T08:56:46.630Z,14.7
2018-09-28T08:57:48.101Z,14.8
2018-09-28T08:58:49.509Z,14.8
2018-09-28T08:59:50.992Z,14.9
2018-09-28T09:00:52.399Z,14.9
2018-09-28T09:01:54.186Z,15.0
2018-09-28T09:02:55.712Z,14.9
2018-09-28T09:03:57.123Z,15.0
2018-09-28T09:04:58.530Z,15.0
2018-09-28T09:06:00.035Z,15.1
2018-09-28T09:07:01.533Z,15.0
2018-09-28T09:08:02.940Z,15.0
2018-09-28T09:09:04.557Z,15.0
2018-09-28T09:10:05.970Z,14.9
2018-09-28T09:11:07.377Z,15.0
2018-09-28T09:12:08.884Z,14.9
2018-09-28T09:13:10.289Z,14.9
2018-09-28T09:14:11.688Z,15.0
2018-09-28T09:15:13.203Z,14.9
2018-09-28T09:16:14.609Z,14.9
2018-09-28T09:17:16.009Z,14.9
2018-09-28T09:18:17.608Z,14.9
2018-09-28T09:19:18.936Z,14.9
2018-09-28T09:20:20.408Z,14.9
2018-09-28T09:21:21.815Z,14.9
2018-09-28T09:22:23.218Z,14.9
2018-09-28T09:23:24.735Z,14.9
2018-09-28T09:24:26.127Z,14.8
2018-09-28T09:25:27.543Z,14.8
2018-09-28T09:26:29.050Z,14.8
2018-09-28T09:27:30.452Z,14.7
2018-09-28T09:28:31.931Z,14.6
2018-09-28T09:29:33.340Z,14.6
2018-09-28T09:30:34.809Z,14.5
2018-09-28T09:31:36.222Z,14.5
2018-09-28T09:32:37.699Z,14.5
2018-09-28T09:33:39.114Z,14.4
2018-09-28T09:34:40.573Z,14.4
2018-09-28T09:35:42.157Z,14.3
2018-09-28T09:36:43.651Z,14.3
2018-09-28T09:37:45.075Z,14.1
2018-09-28T09:38:46.480Z,14.1
2018-09-28T09:39:47.980Z,14.1
2018-09-28T09:40:49.390Z,14.0
2018-09-28T09:41:50.795Z,14.0
2018-09-28T09:42:52.306Z,13.9
2018-09-28T09:43:53.710Z,13.7
2018-09-28T09:44:55.185Z,13.7
2018-09-28T09:45:56.592Z,13.6
2018-09-28T09:46:58.065Z,13.6
2018-09-28T09:47:59.474Z,13.5
2018-09-28T09:49:00.949Z,13.5
2018-09-28T09:50:02.355Z,13.6
2018-09-28T09:51:03.825Z,13.5
2018-09-28T09:52:05.235Z,13.5
2018-09-28T09:53:06.641Z,13.5
2018-09-28T09:54:08.149Z,13.4
2018-09-28T09:55:09.567Z,13.4
2018-09-28T09:56:10.978Z,13.4
2018-09-28T09:57:12.467Z,13.3
2018-09-28T09:58:13.933Z,13.4
2018-09-28T09:59:15.395Z,13.4
2018-09-28T10:00:16.803Z,13.4
2018-09-28T10:01:18.273Z,13.5
2018-09-28T10:02:19.683Z,13.5
2018-09-28T10:03:21.087Z,13.5
2018-09-28T10:04:22.551Z,13.5
2018-09-28T10:05:23.959Z,13.5
2018-09-28T10:06:25.374Z,13.4
2018-09-28T10:07:26.880Z,13.4
2018-09-28T10:08:28.290Z,13.4
2018-09-28T10:09:29.808Z,13.5
2018-09-28T10:10:31.165Z,13.5
2018-09-28T10:11:32.636Z,13.5
2018-09-28T10:12:34.081Z,13.5
2018-09-28T10:13:35.448Z,13.6
2018-09-28T10:14:36.957Z,13.6
2018-09-28T10:15:38.373Z,13.6
2018-09-28T10:16:39.782Z,13.6
2018-09-28T10:17:41.279Z,13.6
2018-09-28T10:18:42.683Z,13.6
2018-09-28T10:19:44.155Z,13.7
2018-09-28T10:20:45.601Z,13.7
2018-09-28T10:21:47.007Z,13.7
2018-09-28T10:22:48.415Z,13.7
2018-09-28T10:23:49.923Z,13.8
2018-09-28T10:24:51.324Z,13.8
2018-09-28T10:25:52.804Z,13.8
2018-09-28T10:26:54.266Z,13.7
2018-09-28T10:27:55.745Z,13.8
2018-09-28T10:28:57.126Z,13.8
2018-09-28T10:29:58.534Z,13.9
2018-09-28T10:30:59.944Z,13.9
2018-09-28T10:32:01.458Z,13.9
2018-09-28T10:33:02.890Z,13.9
2018-09-28T10:34:04.299Z,13.9
2018-09-28T10:35:05.782Z,13.9
2018-09-28T10:36:07.182Z,14.0
2018-09-28T10:37:08.656Z,14.0
2018-09-28T10:38:16.141Z,14.0
2018-09-28T10:39:17.747Z,14.0
2018-09-28T10:40:19.153Z,14.0
2018-09-28T10:41:20.559Z,14.1
2018-09-28T10:42:21.958Z,14.1
2018-09-28T10:43:23.441Z,14.2
2018-09-28T10:44:25.012Z,14.1
2018-09-28T10:45:26.668Z,14.3
2018-09-28T10:46:28.066Z,14.3
2018-09-28T10:47:29.613Z,14.4
2018-09-28T10:48:31.020Z,14.3
2018-09-28T10:49:32.432Z,14.4
2018-09-28T10:50:33.933Z,14.4
2018-09-28T10:51:35.402Z,14.4
2018-09-28T10:52:36.825Z,14.4
2018-09-28T10:53:38.256Z,14.6
2018-09-28T10:54:39.661Z,14.5
2018-09-28T10:55:41.093Z,14.6
2018-09-28T10:56:42.579Z,14.7
2018-09-28T10:57:43.988Z,14.9
2018-09-28T10:58:45.464Z,14.9
2018-09-28T10:59:46.898Z,15.0
2018-09-28T11:00:48.303Z,15.2
2018-09-28T11:01:49.721Z,15.2
2018-09-28T11:02:51.221Z,15.2
2018-09-28T11:03:52.624Z,15.2
2018-09-28T11:04:54.030Z,15.3
2018-09-28T11:05:55.541Z,15.3
2018-09-28T11:06:56.956Z,15.4
2018-09-28T11:07:58.354Z,15.4
2018-09-28T11:08:59.930Z,15.4
2018-09-28T11:10:01.290Z,15.6
2018-09-28T11:11:02.764Z,15.6
2018-09-28T11:12:04.170Z,15.8
2018-09-28T11:13:05.626Z,15.9
2018-09-28T11:14:07.060Z,16.0
2018-09-28T11:15:08.568Z,16.1
2018-09-28T11:16:09.964Z,16.2
2018-09-28T11:17:11.420Z,16.3
2018-09-28T11:18:12.833Z,16.3
2018-09-28T11:19:14.244Z,16.3
2018-09-28T11:20:15.652Z,16.5
2018-09-28T11:21:17.196Z,16.4
2018-09-28T11:22:18.596Z,16.4
2018-09-28T11:23:20.065Z,16.2
2018-09-28T11:24:21.474Z,16.2
2018-09-28T11:25:22.906Z,16.2
2018-09-28T11:26:24.339Z,16.2
2018-09-28T11:27:25.843Z,16.2
2018-09-28T11:28:27.218Z,16.2
2018-09-28T11:29:28.692Z,16.2
2018-09-28T11:30:30.106Z,16.2
2018-09-28T11:31:31.553Z,16.3
2018-09-28T11:32:32.961Z,16.3
2018-09-28T11:33:34.472Z,16.4
2018-09-28T11:34:35.862Z,16.5
2018-09-28T11:35:37.315Z,16.7
2018-09-28T11:36:38.721Z,16.8
2018-09-28T11:37:40.223Z,16.9
2018-09-28T11:38:41.601Z,17.0
2018-09-28T11:39:43.085Z,17.2
2018-09-28T11:40:44.495Z,17.2
2018-09-28T11:41:45.955Z,17.4
2018-09-28T11:42:47.376Z,17.5
2018-09-28T11:43:48.835Z,17.6
2018-09-28T11:44:50.240Z,17.8
2018-09-28T11:45:51.661Z,17.8
2018-09-28T11:46:53.158Z,17.8
2018-09-28T11:47:54.571Z,17.9
2018-09-28T11:48:56.014Z,18.0
2018-09-28T11:49:57.481Z,18.0
2018-09-28T11:50:58.887Z,18.0
2018-09-28T11:52:00.360Z,18.0
2018-09-28T11:53:01.771Z,18.0
2018-09-28T11:54:03.180Z,17.9
2018-09-28T11:55:04.705Z,17.9
2018-09-28T11:56:06.117Z,17.9
2018-09-28T11:57:07.547Z,17.9
2018-09-28T11:58:09.007Z,18.0
2018-09-28T11:59:10.416Z,17.9
2018-09-28T12:00:11.853Z,18.0
2018-09-28T12:01:13.325Z,18.0
2018-09-28T12:02:14.736Z,17.9
2018-09-28T12:03:16.182Z,18.1
2018-09-28T12:04:17.654Z,18.0
2018-09-28T12:05:19.067Z,18.1
2018-09-28T12:06:20.493Z,18.1
2018-09-28T12:07:21.970Z,18.0
2018-09-28T12:08:23.373Z,18.1
2018-09-28T12:09:24.832Z,18.0
2018-09-28T12:10:26.290Z,17.9
2018-09-28T12:11:27.699Z,17.9
2018-09-28T12:12:29.253Z,17.9
2018-09-28T12:13:30.670Z,17.9
2018-09-28T12:14:32.259Z,17.9
2018-09-28T12:15:33.676Z,17.8
2018-09-28T12:16:35.136Z,17.9
2018-09-28T12:17:36.544Z,17.9
2018-09-28T12:18:38.243Z,17.9
2018-09-28T12:19:39.622Z,17.8
2018-09-28T12:20:41.035Z,17.8
2018-09-28T12:21:42.600Z,17.7
2018-09-28T12:22:43.949Z,17.5
2018-09-28T12:23:45.369Z,17.5
2018-09-28T12:24:46.912Z,17.6
2018-09-28T12:25:48.277Z,17.7
2018-09-28T12:26:49.747Z,17.7
2018-09-28T12:27:51.219Z,17.7
2018-09-28T12:28:52.644Z,17.7
2018-09-28T12:29:59.253Z,17.6
2018-09-28T12:31:00.838Z,17.6
2018-09-28T12:32:02.246Z,17.6
2018-09-28T12:33:03.809Z,17.5
2018-09-28T12:34:05.229Z,17.6
2018-09-28T12:35:06.850Z,17.5
2018-09-28T12:36:08.312Z,17.5
2018-09-28T12:37:09.920Z,17.4
2018-09-28T12:38:11.481Z,17.3
2018-09-28T12:39:13.059Z,17.3
2018-09-28T12:40:14.373Z,17.3
2018-09-28T12:41:15.784Z,17.3
2018-09-28T12:42:17.417Z,17.3
2018-09-28T12:43:18.753Z,17.2
2018-09-28T12:44:20.268Z,17.1
2018-09-28T12:45:21.716Z,17.3
2018-09-28T12:46:23.083Z,17.3
2018-09-28T12:47:24.487Z,17.3
2018-09-28T12:48:26.037Z,17.3
2018-09-28T12:49:27.375Z,17.3
2018-09-28T12:50:28.906Z,17.3
2018-09-28T12:51:30.535Z,17.5
2018-09-28T12:52:31.943Z,17.5
2018-09-28T12:53:33.364Z,17.6
2018-09-28T12:54:34.789Z,17.6
2018-09-28T12:55:36.192Z,17.5
2018-09-28T12:56:37.747Z,17.4
2018-09-28T12:57:39.099Z,17.3
2018-09-28T12:58:40.575Z,17.3
2018-09-28T12:59:41.980Z,17.2
2018-09-28T13:00:43.435Z,17.1
2018-09-28T13:01:44.920Z,17.0
2018-09-28T13:02:46.330Z,16.9
2018-09-28T13:03:47.717Z,16.7
2018-09-28T13:04:49.217Z,16.7
2018-09-28T13:05:50.620Z,16.7
2018-09-28T13:06:52.127Z,16.5
2018-09-28T13:07:53.538Z,16.4
2018-09-28T13:08:55.189Z,16.4
2018-09-28T13:09:56.590Z,16.3
2018-09-28T13:10:57.990Z,16.3
2018-09-28T13:11:59.508Z,16.2
2018-09-28T13:13:00.914Z,16.1
2018-09-28T13:14:02.328Z,16.2
2018-09-28T13:15:03.933Z,16.2
2018-09-28T13:16:05.248Z,16.2
2018-09-28T13:17:06.708Z,16.2
2018-09-28T13:18:08.200Z,16.2
2018-09-28T13:19:09.798Z,16.2
2018-09-28T13:20:11.227Z,16.2
2018-09-28T13:21:12.610Z,16.2
2018-09-28T13:22:14.115Z,16.3
2018-09-28T13:23:15.525Z,16.4
2018-09-28T13:24:16.932Z,16.4
2018-09-28T13:25:18.483Z,16.4
2018-09-28T13:26:19.940Z,16.5
2018-09-28T13:27:21.527Z,16.6
2018-09-28T13:28:22.936Z,16.7
2018-09-28T13:29:24.407Z,16.7
2018-09-28T13:30:25.839Z,16.7
2018-09-28T13:31:27.234Z,16.8
2018-09-28T13:32:28.877Z,16.9
2018-09-28T13:33:30.137Z,16.9
2018-09-28T13:34:31.606Z,16.9
2018-09-28T13:35:33.016Z,16.8
2018-09-28T13:36:34.451Z,16.7
2018-09-28T13:37:35.936Z,16.6
2018-09-28T13:38:37.555Z,16.4
2018-09-28T13:39:38.740Z,16.3
2018-09-28T13:40:40.248Z,16.2
2018-09-28T13:41:41.667Z,16.1
2018-09-28T13:42:43.138Z,16.0
2018-09-28T13:43:44.571Z,15.9
2018-09-28T13:44:46.063Z,15.8